Time;durP1;ratioP1;P1;durP2;ratioP2;P2;SDS_P1;SDS_P2;PMS_P1;PMS_P2;Temp;Humidity;BMP_temperature;BMP_pressure;BME280_temperature;BME280_humidity;BME280_pressure;Samples;Min_cycle;Max_cycle;Signal;HPM_P1;HPM_P2
2022/09/02 00:00:51;;;;;;;4.32;0.80;;;15.00;99.90;;;;;;5016492;28;20123;-64
2022/09/02 00:03:18;;;;;;;2.78;0.70;;;15.10;99.90;;;;;;5028834;28;20060;-64
2022/09/02 00:05:44;;;;;;;5.20;0.88;;;15.00;99.90;;;;;;5031117;28;20407;-64
2022/09/02 00:08:11;;;;;;;3.53;0.60;;;15.10;99.90;;;;;;5033901;28;20037;-64
2022/09/02 00:10:39;;;;;;;2.40;0.60;;;15.00;99.90;;;;;;5047340;28;20044;-64
2022/09/02 00:13:07;;;;;;;1.50;0.80;;;14.90;99.90;;;;;;5034470;28;20113;-64
2022/09/02 00:15:33;;;;;;;1.88;1.10;;;15.10;99.90;;;;;;5027961;28;20047;-64
2022/09/02 00:18:00;;;;;;;2.53;0.60;;;15.00;99.90;;;;;;5050022;28;20026;-65
2022/09/02 00:20:27;;;;;;;2.28;0.80;;;15.00;99.90;;;;;;5033965;28;20041;-65
2022/09/02 00:22:52;;;;;;;3.65;0.70;;;15.00;99.90;;;;;;5035744;28;20388;-64
2022/09/02 00:25:18;;;;;;;3.65;1.10;;;15.00;99.90;;;;;;5053931;28;20033;-64
2022/09/02 00:27:44;;;;;;;2.25;0.70;;;14.80;99.90;;;;;;5039653;28;20545;-64
2022/09/02 00:30:10;;;;;;;2.38;0.77;;;14.80;99.90;;;;;;5053557;28;20037;-64
2022/09/02 00:32:36;;;;;;;2.83;0.70;;;14.80;99.90;;;;;;5041663;28;20094;-64
2022/09/02 00:35:02;;;;;;;3.25;0.90;;;15.00;99.90;;;;;;5033651;28;20034;-64
2022/09/02 00:37:27;;;;;;;1.60;0.80;;;14.70;99.90;;;;;;5026030;28;20040;-64
2022/09/02 00:39:53;;;;;;;3.30;0.80;;;14.60;99.90;;;;;;5051565;28;20045;-64
2022/09/02 00:42:20;;;;;;;3.38;1.00;;;14.70;99.90;;;;;;5015654;28;20038;-65
2022/09/02 00:44:47;;;;;;;4.40;0.93;;;14.70;99.90;;;;;;5047391;28;20033;-64
2022/09/02 00:47:14;;;;;;;1.17;0.85;;;14.40;99.90;;;;;;5022079;28;20106;-64
2022/09/02 00:49:44;;;;;;;2.78;0.90;;;14.70;99.90;;;;;;5041061;28;20048;-64
2022/09/02 00:52:19;;;;;;;3.67;0.85;;;14.60;99.90;;;;;;5038254;28;20044;-64
2022/09/02 00:54:48;;;;;;;4.05;0.70;;;14.30;99.90;;;;;;5010939;28;20050;-64
2022/09/02 00:57:18;;;;;;;1.17;0.65;;;14.40;99.90;;;;;;5032099;28;20033;-64
2022/09/02 01:00:10;;;;;;;2.28;0.70;;;14.50;99.90;;;;;;5015936;28;20510;-64
2022/09/02 01:02:43;;;;;;;3.50;0.82;;;14.70;99.90;;;;;;5002681;28;20044;-64
2022/09/02 01:05:11;;;;;;;4.72;0.75;;;14.50;99.90;;;;;;5039000;28;20483;-64
2022/09/02 01:07:37;;;;;;;1.48;0.70;;;14.30;99.90;;;;;;5011625;28;20510;-64
2022/09/02 01:10:07;;;;;;;2.33;0.80;;;14.40;99.90;;;;;;5015420;28;20050;-64
2022/09/02 01:12:34;;;;;;;2.95;0.93;;;14.40;99.90;;;;;;5046703;28;20037;-64
2022/09/02 01:15:03;;;;;;;1.20;0.70;;;14.40;99.90;;;;;;5039885;28;20041;-64
2022/09/02 01:17:29;;;;;;;2.15;0.90;;;14.20;99.90;;;;;;5052752;28;20550;-64
2022/09/02 01:20:00;;;;;;;1.48;0.90;;;14.20;99.90;;;;;;5021052;28;20132;-64
2022/09/02 01:22:29;;;;;;;2.60;0.93;;;14.10;99.90;;;;;;5034881;28;20514;-64
2022/09/02 01:25:04;;;;;;;1.50;0.80;;;14.30;99.90;;;;;;5034072;28;20033;-64
2022/09/02 01:27:30;;;;;;;1.67;0.68;;;14.20;99.90;;;;;;5032903;28;20112;-64
2022/09/02 01:29:58;;;;;;;5.78;0.77;;;14.10;99.90;;;;;;5015049;28;20037;-64
2022/09/02 01:32:24;;;;;;;1.67;0.82;;;14.10;99.90;;;;;;5025497;28;20403;-64
2022/09/02 01:34:50;;;;;;;1.63;1.00;;;14.10;99.90;;;;;;5021972;28;20049;-64
2022/09/02 01:37:16;;;;;;;7.05;0.85;;;14.20;99.90;;;;;;5015089;28;20037;-64
2022/09/02 01:39:43;;;;;;;1.92;0.98;;;14.20;99.90;;;;;;5032820;28;20399;-64
2022/09/02 01:42:09;;;;;;;4.72;1.13;;;14.20;99.90;;;;;;5032898;28;20033;-64
2022/09/02 01:44:42;;;;;;;2.97;0.80;;;14.10;99.90;;;;;;5002921;28;20053;-64
2022/09/02 01:47:13;;;;;;;4.18;0.90;;;14.10;99.90;;;;;;5032623;28;20037;-64
2022/09/02 01:49:39;;;;;;;1.38;0.77;;;14.10;99.90;;;;;;5002635;28;20049;-64
2022/09/02 01:52:06;;;;;;;2.63;0.88;;;14.00;99.90;;;;;;5013640;28;20038;-64
2022/09/02 01:54:32;;;;;;;4.28;0.98;;;13.90;99.90;;;;;;5032823;28;20060;-64
2022/09/02 01:56:57;;;;;;;1.70;1.10;;;14.10;99.90;;;;;;5034957;28;20121;-64
2022/09/02 01:59:23;;;;;;;2.03;0.88;;;13.80;99.90;;;;;;5052640;28;20495;-64
2022/09/02 02:01:48;;;;;;;3.08;1.00;;;14.00;99.90;;;;;;5038195;28;20124;-64
2022/09/02 02:04:14;;;;;;;1.20;0.88;;;14.00;99.90;;;;;;5045942;28;20041;-64
2022/09/02 02:06:41;;;;;;;3.60;0.93;;;13.80;99.90;;;;;;5014869;28;20045;-64
2022/09/02 02:09:08;;;;;;;1.90;0.82;;;13.80;99.90;;;;;;5001825;28;20072;-64
2022/09/02 02:11:34;;;;;;;1.42;0.73;;;13.80;99.90;;;;;;5027822;28;20490;-64
2022/09/02 02:13:59;;;;;;;3.90;0.82;;;13.90;99.90;;;;;;5045438;28;20072;-64
2022/09/02 02:16:25;;;;;;;2.63;0.90;;;13.80;99.90;;;;;;5047267;28;20052;-64
2022/09/02 02:18:50;;;;;;;1.40;0.85;;;13.80;99.90;;;;;;5014635;28;20100;-64
2022/09/02 02:21:16;;;;;;;3.67;0.70;;;13.70;99.90;;;;;;5014740;28;20099;-64
2022/09/02 02:23:42;;;;;;;2.13;0.85;;;13.80;99.90;;;;;;5032593;28;20037;-64
2022/09/02 02:26:07;;;;;;;1.38;0.77;;;13.70;99.90;;;;;;5022158;28;20400;-64
2022/09/02 02:28:34;;;;;;;3.05;0.93;;;13.60;99.90;;;;;;5049330;28;20033;-64
2022/09/02 02:30:59;;;;;;;1.92;0.85;;;13.60;99.90;;;;;;5036106;28;20092;-64
2022/09/02 02:33:27;;;;;;;2.10;1.00;;;13.60;99.90;;;;;;5035970;28;20057;-64
2022/09/02 02:35:53;;;;;;;1.20;0.90;;;13.50;99.90;;;;;;5007107;28;20046;-64
2022/09/02 02:38:19;;;;;;;2.00;1.00;;;13.70;99.90;;;;;;5029158;28;20117;-64
2022/09/02 02:40:45;;;;;;;4.32;1.00;;;13.70;99.90;;;;;;5034724;28;20552;-64
2022/09/02 02:43:10;;;;;;;1.95;0.80;;;13.60;99.90;;;;;;5017699;28;20056;-64
2022/09/02 02:45:36;;;;;;;3.15;0.88;;;13.70;99.90;;;;;;5035739;28;20407;-64
2022/09/02 02:48:02;;;;;;;4.18;0.90;;;13.60;99.90;;;;;;5039982;28;20402;-64
2022/09/02 02:50:27;;;;;;;2.03;1.05;;;13.70;99.90;;;;;;5038344;28;20037;-64
2022/09/02 02:52:56;;;;;;;2.35;1.15;;;13.60;99.90;;;;;;5027141;28;20383;-64
2022/09/02 02:55:22;;;;;;;4.57;1.02;;;13.40;99.90;;;;;;5039834;28;20041;-64
2022/09/02 02:57:48;;;;;;;2.13;1.00;;;13.50;99.90;;;;;;5035160;28;20136;-64
2022/09/02 03:00:24;;;;;;;1.52;0.80;;;13.30;99.90;;;;;;5035549;28;20112;-64
2022/09/02 03:02:53;;;;;;;1.33;0.82;;;13.50;99.90;;;;;;5035066;28;20581;-64
2022/09/02 03:05:18;;;;;;;1.58;0.95;;;13.30;99.90;;;;;;5035593;28;20044;-64
2022/09/02 03:07:44;;;;;;;4.22;1.27;;;13.10;99.90;;;;;;5017493;28;20430;-64
2022/09/02 03:10:11;;;;;;;4.63;0.90;;;13.50;99.90;;;;;;5035349;28;20037;-64
2022/09/02 03:12:38;;;;;;;2.72;0.90;;;13.30;99.90;;;;;;5034986;28;20037;-64
2022/09/02 03:15:05;;;;;;;2.20;1.20;;;13.40;99.90;;;;;;5035142;28;20033;-64
2022/09/02 03:17:32;;;;;;;3.17;1.15;;;13.50;99.90;;;;;;5017134;28;20053;-64
2022/09/02 03:19:58;;;;;;;8.45;0.90;;;13.30;99.90;;;;;;5017586;28;20037;-64
2022/09/02 03:22:25;;;;;;;3.78;1.10;;;13.30;99.90;;;;;;5030628;28;20088;-64
2022/09/02 03:24:51;;;;;;;1.58;0.95;;;13.30;99.90;;;;;;5017418;28;20048;-64
2022/09/02 03:27:16;;;;;;;1.92;0.88;;;13.10;99.90;;;;;;5017098;28;20445;-64
2022/09/02 03:29:43;;;;;;;2.35;0.90;;;13.10;99.90;;;;;;5038361;28;20036;-64
2022/09/02 03:32:09;;;;;;;2.58;0.95;;;13.10;99.90;;;;;;5036829;28;20167;-64
2022/09/02 03:34:35;;;;;;;5.30;1.20;;;13.00;99.90;;;;;;5021212;28;20128;-64
2022/09/02 03:37:00;;;;;;;3.40;1.02;;;13.20;99.90;;;;;;5034116;28;20041;-64
2022/09/02 03:39:26;;;;;;;1.40;1.00;;;13.00;99.90;;;;;;5017048;28;20049;-64
2022/09/02 03:41:52;;;;;;;2.22;1.00;;;13.00;99.90;;;;;;5016749;28;20503;-64
2022/09/02 03:44:18;;;;;;;1.80;1.23;;;13.10;99.90;;;;;;5017016;28;20081;-64
2022/09/02 03:46:44;;;;;;;3.92;0.88;;;13.20;99.90;;;;;;4999381;28;20073;-64
2022/09/02 03:49:09;;;;;;;2.65;1.15;;;12.90;99.90;;;;;;5006639;28;20182;-64
2022/09/02 03:51:39;;;;;;;2.30;1.20;;;13.10;99.90;;;;;;5034336;28;20053;-64
2022/09/02 03:54:06;;;;;;;4.22;1.00;;;12.90;99.90;;;;;;5041258;28;20577;-64
2022/09/02 03:56:32;;;;;;;2.67;1.08;;;12.90;99.90;;;;;;5023157;28;20077;-64
2022/09/02 03:58:59;;;;;;;3.13;1.15;;;12.90;99.90;;;;;;5016662;28;20034;-64
2022/09/02 04:01:25;;;;;;;2.13;1.15;;;12.90;99.90;;;;;;5045803;28;20044;-64
2022/09/02 04:03:51;;;;;;;1.67;1.20;;;13.10;99.90;;;;;;5036077;28;20060;-64
2022/09/02 04:06:19;;;;;;;2.20;1.77;;;13.00;99.90;;;;;;5018627;28;20045;-64
2022/09/02 04:08:45;;;;;;;2.28;1.02;;;12.90;99.90;;;;;;5039773;28;20403;-64
2022/09/02 04:11:16;;;;;;;5.05;1.20;;;12.80;99.90;;;;;;5036073;28;20123;-64
2022/09/02 04:13:43;;;;;;;1.70;1.10;;;12.70;99.90;;;;;;5002448;28;20071;-64
2022/09/02 04:16:14;;;;;;;1.92;1.10;;;13.00;99.90;;;;;;5034048;28;20459;-64
2022/09/02 04:18:40;;;;;;;2.20;1.00;;;;;;;;;;5047624;28;20119;-64
2022/09/02 04:21:06;;;;;;;4.47;1.20;;;12.70;99.90;;;;;;5012986;28;20487;-64
2022/09/02 04:23:32;;;;;;;1.95;1.30;;;12.90;99.90;;;;;;5022430;28;20377;-64
2022/09/02 04:26:03;;;;;;;1.52;0.95;;;12.90;99.90;;;;;;5031729;28;20117;-64
2022/09/02 04:28:28;;;;;;;4.38;1.25;;;12.90;99.90;;;;;;5034089;28;20045;-64
2022/09/02 04:30:54;;;;;;;1.95;1.02;;;12.70;99.90;;;;;;5047912;28;20048;-64
2022/09/02 04:33:19;;;;;;;2.97;1.30;;;12.80;99.90;;;;;;5041816;28;20040;-64
2022/09/02 04:35:48;;;;;;;2.15;1.30;;;12.70;99.90;;;;;;5039107;28;20120;-64
2022/09/02 04:38:15;;;;;;;2.30;1.30;;;12.90;99.90;;;;;;5002653;28;20045;-64
2022/09/02 04:40:43;;;;;;;3.78;1.35;;;12.80;99.90;;;;;;5046451;28;20036;-64
2022/09/02 04:43:09;;;;;;;2.47;1.88;;;12.80;99.90;;;;;;5016884;28;20041;-64
2022/09/02 04:45:39;;;;;;;5.18;1.45;;;13.90;99.90;;;;;;5016013;28;20044;-64
2022/09/02 04:48:04;;;;;;;4.57;1.30;;;12.70;99.90;;;;;;5019227;28;20032;-64
2022/09/02 04:50:30;;;;;;;2.22;1.30;;;12.80;99.90;;;;;;5010320;28;20119;-64
2022/09/02 04:52:55;;;;;;;2.35;1.33;;;12.90;99.90;;;;;;5007458;28;20129;-64
2022/09/02 04:55:21;;;;;;;1.38;1.00;;;13.00;99.90;;;;;;5037280;28;20098;-64
2022/09/02 04:57:46;;;;;;;3.20;1.00;;;12.70;99.90;;;;;;5025961;28;20427;-64
2022/09/02 05:00:13;;;;;;;2.17;1.08;;;12.80;99.90;;;;;;5015617;28;20487;-64
2022/09/02 05:02:40;;;;;;;2.60;1.17;;;12.70;99.90;;;;;;5022779;28;20048;-64
2022/09/02 05:05:06;;;;;;;2.75;1.08;;;12.60;99.90;;;;;;5021588;28;20037;-64
2022/09/02 05:07:35;;;;;;;1.80;1.30;;;12.70;99.90;;;;;;5022390;28;20049;-64
2022/09/02 05:10:02;;;;;;;2.47;1.30;;;12.70;99.90;;;;;;5033388;28;20056;-64
2022/09/02 05:12:27;;;;;;;2.50;1.27;;;12.70;99.90;;;;;;5019881;28;20037;-64
2022/09/02 05:14:55;;;;;;;1.20;0.82;;;12.60;99.90;;;;;;5042770;28;20103;-64
2022/09/02 05:17:22;;;;;;;1.60;1.02;;;12.70;99.90;;;;;;5032770;28;20442;-64
2022/09/02 05:19:48;;;;;;;3.05;1.50;;;12.60;99.90;;;;;;5015296;28;20041;-64
2022/09/02 05:22:14;;;;;;;1.67;1.17;;;12.70;99.90;;;;;;5047895;28;20368;-64
2022/09/02 05:24:41;;;;;;;2.22;1.10;;;12.80;99.90;;;;;;5052874;28;20044;-64
2022/09/02 05:27:07;;;;;;;2.75;1.35;;;12.80;99.90;;;;;;5039971;28;20043;-64
2022/09/02 05:29:37;;;;;;;2.35;1.20;;;12.80;99.90;;;;;;5038404;28;20041;-64
2022/09/02 05:32:03;;;;;;;3.67;1.35;;;12.90;99.90;;;;;;5041073;28;20046;-64
2022/09/02 05:34:29;;;;;;;4.05;1.27;;;12.90;99.90;;;;;;5022451;28;20041;-64
2022/09/02 05:36:55;;;;;;;2.67;1.42;;;;;;;;;;5043195;28;20033;-64
2022/09/02 05:39:21;;;;;;;1.60;1.05;;;13.10;99.90;;;;;;5017127;28;20415;-64
2022/09/02 05:41:47;;;;;;;4.07;1.38;;;13.20;99.90;;;;;;5044907;28;20037;-64
2022/09/02 05:44:12;;;;;;;2.50;1.20;;;13.20;99.90;;;;;;5046380;28;20033;-64
2022/09/02 05:46:38;;;;;;;3.03;1.48;;;13.10;99.90;;;;;;5015308;28;20137;-64
2022/09/02 05:49:37;;;;;;;1.85;1.20;;;13.20;99.90;;;;;;5026958;28;20048;-64
2022/09/02 05:51:58;;;;;;;4.35;1.30;;;13.30;99.90;;;;;;5035373;28;20041;-64
2022/09/02 05:54:30;;;;;;;2.17;1.35;;;13.20;99.90;;;;;;5043001;28;20037;-64
2022/09/02 05:56:58;;;;;;;3.00;1.25;;;13.30;99.90;;;;;;5014983;28;20041;-64
2022/09/02 05:59:26;;;;;;;1.48;1.17;;;13.40;99.90;;;;;;5024150;28;20041;-64
2022/09/02 06:01:52;;;;;;;2.63;1.30;;;13.50;99.90;;;;;;5038193;28;20068;-64
2022/09/02 06:04:19;;;;;;;3.47;1.20;;;13.60;99.90;;;;;;5031475;28;20487;-64
2022/09/02 06:06:45;;;;;;;3.08;1.23;;;13.70;99.90;;;;;;5045949;28;20033;-64
2022/09/02 06:09:13;;;;;;;2.28;1.30;;;13.80;99.90;;;;;;5037678;28;20106;-64
2022/09/02 06:11:43;;;;;;;2.78;1.55;;;14.00;99.90;;;;;;5056313;28;20045;-64
2022/09/02 06:14:11;;;;;;;1.77;1.20;;;14.20;99.90;;;;;;5033858;28;20116;-64
2022/09/02 06:16:37;;;;;;;1.42;1.20;;;14.30;99.90;;;;;;5046892;28;20048;-65
2022/09/02 06:19:03;;;;;;;7.07;1.20;;;14.40;99.90;;;;;;5042340;28;20037;-65
2022/09/02 06:21:29;;;;;;;2.03;1.05;;;14.60;99.90;;;;;;5056233;28;20044;-65
2022/09/02 06:23:55;;;;;;;1.88;1.10;;;15.00;99.90;;;;;;5038095;28;20511;-65
2022/09/02 06:26:21;;;;;;;3.40;1.27;;;15.10;99.90;;;;;;5010234;28;20052;-65
2022/09/02 06:28:46;;;;;;;3.90;1.33;;;15.20;99.90;;;;;;5025223;28;20506;-65
2022/09/02 06:31:15;;;;;;;3.75;1.30;;;15.30;99.90;;;;;;5044766;28;20041;-65
2022/09/02 06:33:42;;;;;;;2.40;1.50;;;15.20;99.90;;;;;;5036068;28;20041;-65
2022/09/02 06:36:11;;;;;;;1.77;0.95;;;15.70;99.90;;;;;;5034999;28;20538;-66
2022/09/02 06:38:39;;;;;;;4.63;1.13;;;16.00;99.90;;;;;;5035704;28;20384;-65
2022/09/02 06:41:05;;;;;;;3.47;1.13;;;16.20;99.90;;;;;;5008780;28;20117;-65
2022/09/02 06:43:31;;;;;;;2.85;1.30;;;16.10;99.90;;;;;;5016710;28;20121;-65
2022/09/02 06:45:57;;;;;;;5.30;1.30;;;16.20;99.90;;;;;;5029283;28;20398;-65
2022/09/02 06:48:23;;;;;;;1.20;0.73;;;16.50;99.90;;;;;;5017252;28;20037;-66
2022/09/02 06:50:48;;;;;;;1.48;1.10;;;16.50;99.90;;;;;;5027367;28;20064;-64
2022/09/02 06:53:16;;;;;;;1.38;0.80;;;16.40;99.90;;;;;;5018623;28;20415;-64
2022/09/02 06:55:43;;;;;;;3.05;0.93;;;16.80;99.90;;;;;;5017114;28;20127;-65
2022/09/02 06:58:10;;;;;;;1.70;0.80;;;16.80;99.90;;;;;;5004564;28;20046;-65
2022/09/02 07:00:36;;;;;;;1.83;1.08;;;16.90;99.90;;;;;;5028845;28;20033;-65
2022/09/02 07:06:01;;;;;;;4.30;0.98;;;16.90;99.90;;;;;;5017020;28;20408;-65
2022/09/02 07:08:27;;;;;;;2.80;0.98;;;17.20;99.90;;;;;;5022680;28;20048;-65
2022/09/02 07:10:52;;;;;;;1.13;0.60;;;17.10;99.90;;;;;;5008705;28;20046;-65
2022/09/02 07:13:18;;;;;;;3.40;0.70;;;17.20;99.90;;;;;;5018208;28;20046;-65
2022/09/02 07:15:43;;;;;;;3.78;0.95;;;17.20;99.90;;;;;;5005736;28;20048;-65
2022/09/02 07:18:09;;;;;;;2.90;0.70;;;17.40;99.90;;;;;;5011518;28;20034;-65
2022/09/02 07:20:34;;;;;;;2.88;0.82;;;17.60;99.90;;;;;;5018076;28;20095;-65
2022/09/02 07:23:00;;;;;;;7.15;1.38;;;17.60;99.90;;;;;;5046280;28;20132;-66
2022/09/02 07:25:26;;;;;;;2.50;0.80;;;17.80;99.90;;;;;;5034815;28;20029;-66
2022/09/02 07:27:51;;;;;;;2.08;0.70;;;17.80;99.90;;;;;;5031680;28;20076;-65
2022/09/02 07:30:17;;;;;;;3.90;0.90;;;18.00;99.90;;;;;;5035020;28;20438;-65
2022/09/02 07:32:43;;;;;;;1.95;0.68;;;18.40;99.90;;;;;;5017264;28;20060;-65
2022/09/02 07:35:09;;;;;;;3.83;1.23;;;18.40;99.90;;;;;;5017182;28;20053;-65
2022/09/02 07:37:35;;;;;;;3.08;0.90;;;18.20;99.90;;;;;;5016737;28;20042;-65
2022/09/02 07:40:06;;;;;;;2.28;0.88;;;18.40;99.90;;;;;;5016805;28;20376;-65
2022/09/02 07:42:32;;;;;;;1.98;0.95;;;18.60;99.90;;;;;;5017038;28;20048;-66
2022/09/02 07:44:57;;;;;;;2.75;1.02;;;18.50;99.90;;;;;;5016432;28;20029;-66
2022/09/02 07:47:23;;;;;;;4.32;0.95;;;18.50;99.90;;;;;;5015722;28;20523;-66
2022/09/02 07:49:49;;;;;;;1.77;0.80;;;18.70;99.90;;;;;;5021784;28;20083;-65
2022/09/02 07:52:15;;;;;;;5.93;0.90;;;18.80;99.90;;;;;;5017069;28;20116;-65
2022/09/02 07:54:41;;;;;;;3.13;1.13;;;18.90;99.90;;;;;;5017443;28;20068;-65
2022/09/02 07:57:07;;;;;;;1.05;0.70;;;18.80;99.90;;;;;;5017399;28;20045;-65
2022/09/02 07:59:33;;;;;;;3.45;0.80;;;18.80;99.90;;;;;;4999656;28;20037;-65
2022/09/02 08:01:59;;;;;;;4.15;1.08;;;18.80;99.90;;;;;;5016656;28;20086;-65
2022/09/02 08:04:24;;;;;;;1.92;0.75;;;19.00;99.90;;;;;;4996826;28;20061;-64
2022/09/02 08:06:52;;;;;;;2.95;0.68;;;19.00;99.90;;;;;;5000553;28;20511;-64
2022/09/02 08:09:18;;;;;;;2.33;0.98;;;19.00;99.90;;;;;;5026116;28;20052;-64
2022/09/02 08:11:47;;;;;;;2.55;0.95;;;19.00;99.90;;;;;;5009145;28;20484;-65
2022/09/02 08:14:16;;;;;;;4.15;0.70;;;19.30;99.90;;;;;;5026460;28;20049;-63
2022/09/02 08:16:44;;;;;;;5.22;0.85;;;19.40;99.90;;;;;;5033894;28;20554;-64
2022/09/02 08:19:10;;;;;;;4.45;0.75;;;19.50;99.90;;;;;;5037694;28;20029;-65
2022/09/02 08:21:36;;;;;;;6.05;0.90;;;19.40;99.90;;;;;;5016507;28;20044;-64
2022/09/02 08:24:02;;;;;;;4.68;0.85;;;19.70;99.90;;;;;;5026636;28;20041;-64
2022/09/02 08:26:28;;;;;;;3.45;0.80;;;19.90;99.90;;;;;;5026740;28;20062;-65
2022/09/02 08:28:54;;;;;;;3.30;0.60;;;19.70;99.90;;;;;;5015333;28;20037;-64
2022/09/02 08:31:20;;;;;;;2.15;0.90;;;19.90;99.90;;;;;;5005882;28;20037;-64
2022/09/02 08:33:46;;;;;;;2.50;0.77;;;19.70;99.90;;;;;;5015229;28;20041;-64
2022/09/02 08:36:13;;;;;;;2.10;0.80;;;20.10;99.90;;;;;;5031254;28;20044;-64
2022/09/02 08:38:40;;;;;;;4.03;0.80;;;20.00;99.90;;;;;;5032237;28;20495;-65
2022/09/02 08:41:20;;;;;;;5.03;0.60;;;20.10;99.90;;;;;;5033078;28;20411;-65
2022/09/02 08:43:46;;;;;;;1.45;0.50;;;20.10;99.90;;;;;;5032335;28;20039;-65
2022/09/02 08:46:16;;;;;;;5.03;0.77;;;20.30;99.90;;;;;;5015664;28;20472;-65
2022/09/02 08:49:14;;;;;;;3.55;0.70;;;20.30;99.90;;;;;;5032566;28;20042;-65
2022/09/02 08:51:51;;;;;;;2.67;0.70;;;20.20;99.90;;;;;;5016586;28;20056;-65
2022/09/02 08:54:35;;;;;;;4.13;0.73;;;20.50;99.90;;;;;;5053400;28;20037;-65
2022/09/02 08:57:00;;;;;;;7.03;0.80;;;20.60;99.90;;;;;;5035210;28;20442;-65
2022/09/02 08:59:29;;;;;;;2.83;1.00;;;20.70;99.90;;;;;;5026375;28;20037;-65
2022/09/02 09:02:28;;;;;;;2.70;0.80;;;20.80;99.90;;;;;;5017011;28;20041;-65
2022/09/02 09:05:18;;;;;;;5.30;0.68;;;20.90;99.90;;;;;;5041039;28;20045;-65
2022/09/02 09:07:58;;;;;;;1.98;0.60;;;21.00;99.90;;;;;;5000204;28;20056;-65
2022/09/02 09:10:43;;;;;;;2.00;0.40;;;21.20;99.90;;;;;;5023319;28;20056;-65
2022/09/02 09:13:23;;;;;;;4.32;0.73;;;21.10;99.90;;;;;;5022590;28;20041;-65
2022/09/02 09:16:00;;;;;;;1.13;0.50;;;21.40;99.90;;;;;;4999242;28;20041;-64
2022/09/02 09:18:40;;;;;;;1.58;0.52;;;21.50;99.90;;;;;;5000158;28;20113;-64
2022/09/02 09:21:07;;;;;;;1.92;0.70;;;21.50;99.90;;;;;;5015333;28;20048;-64
2022/09/02 09:23:38;;;;;;;3.50;0.50;;;21.50;99.90;;;;;;5015184;28;20045;-64
2022/09/02 09:26:12;;;;;;;5.38;0.60;;;21.90;99.90;;;;;;5032721;28;20041;-64
2022/09/02 09:28:43;;;;;;;2.00;0.60;;;22.20;99.90;;;;;;5032687;28;20034;-64
2022/09/02 09:31:28;;;;;;;2.30;0.50;;;22.20;99.90;;;;;;5015292;28;20053;-64
2022/09/02 09:34:05;;;;;;;1.83;0.50;;;22.20;99.90;;;;;;5013910;28;20431;-64
2022/09/02 09:36:52;;;;;;;1.95;0.50;;;22.30;99.90;;;;;;5014243;28;20566;-65
2022/09/02 09:39:29;;;;;;;6.35;0.57;;;22.70;99.90;;;;;;5015016;28;20076;-65
2022/09/02 09:42:07;;;;;;;2.58;0.40;;;22.60;99.90;;;;;;5021955;28;20037;-65
2022/09/02 09:44:44;;;;;;;1.85;0.57;;;22.50;99.90;;;;;;5032795;28;20034;-64
2022/09/02 09:47:18;;;;;;;3.05;0.52;;;22.60;99.90;;;;;;5024687;28;20052;-65
2022/09/02 09:49:45;;;;;;;2.40;0.53;;;22.70;99.90;;;;;;5032572;28;20579;-65
2022/09/02 09:52:13;;;;;;;1.30;0.60;;;22.90;99.90;;;;;;5011487;28;20037;-65
2022/09/02 09:54:38;;;;;;;2.30;0.40;;;23.00;99.90;;;;;;5001633;28;20045;-65
2022/09/02 09:57:18;;;;;;;1.83;0.47;;;23.20;99.90;;;;;;5017066;28;20062;-65
2022/09/02 09:59:47;;;;;;;2.35;0.75;;;23.30;99.90;;;;;;5015121;28;20052;-65
2022/09/02 10:02:24;;;;;;;4.70;0.40;;;23.40;99.90;;;;;;5032219;28;20099;-65
2022/09/02 10:05:15;;;;;;;2.65;0.47;;;23.10;99.90;;;;;;5032483;28;20480;-66
2022/09/02 10:07:42;;;;;;;4.03;0.40;;;23.30;99.90;;;;;;5014772;28;20053;-65
2022/09/02 10:10:16;;;;;;;1.60;0.65;;;23.30;99.90;;;;;;5032435;28;20163;-65
2022/09/02 10:12:43;;;;;;;2.15;1.00;;;23.10;99.90;;;;;;5004395;28;20041;-65
2022/09/02 10:15:09;;;;;;;6.43;0.50;;;23.30;99.90;;;;;;5017752;28;20045;-65
2022/09/02 10:18:04;;;;;;;2.45;0.65;;;23.20;99.90;;;;;;5032476;28;20055;-65
2022/09/02 10:20:50;;;;;;;5.57;0.70;;;23.20;99.90;;;;;;5001473;28;20403;-65
2022/09/02 10:23:25;;;;;;;1.58;0.30;;;23.20;99.90;;;;;;5024571;28;20385;-65
2022/09/02 10:26:33;;;;;;;1.13;0.40;;;23.30;99.90;;;;;;4998891;28;20053;-65
2022/09/02 10:28:59;;;;;;;5.22;0.40;;;23.20;99.90;;;;;;4979191;28;20033;-65
2022/09/02 10:31:44;;;;;;;2.10;0.32;;;23.40;99.90;;;;;;5032198;28;20038;-65
2022/09/02 10:34:38;;;;;;;3.08;0.45;;;23.40;99.90;;;;;;5032111;28;20041;-65
2022/09/02 10:37:22;;;;;;;1.42;0.40;;;23.60;99.90;;;;;;5032013;28;20038;-65
2022/09/02 10:40:12;;;;;;;1.95;0.40;;;23.60;99.90;;;;;;5019697;28;20423;-65
2022/09/02 10:43:03;;;;;;;3.60;0.52;;;23.70;99.90;;;;;;5019428;28;20056;-65
2022/09/02 10:45:40;;;;;;;1.55;0.50;;;23.50;99.90;;;;;;5015244;28;20044;-66
2022/09/02 10:48:05;;;;;;;1.45;0.32;;;23.70;99.90;;;;;;5035330;28;20159;-65
2022/09/02 10:50:38;;;;;;;2.95;0.40;;;23.30;99.90;;;;;;5018051;28;20080;-65
2022/09/02 10:53:31;;;;;;;0.65;0.22;;;23.30;99.90;;;;;;5035848;28;20048;-65
2022/09/02 10:56:04;;;;;;;2.20;0.60;;;23.40;99.90;;;;;;5007402;28;20065;-65
2022/09/02 10:59:10;;;;;;;2.67;1.00;;;23.50;99.90;;;;;;5049313;28;20044;-65
2022/09/02 11:01:51;;;;;;;2.90;0.50;;;23.40;99.90;;;;;;5017599;28;20037;-65
2022/09/02 11:04:38;;;;;;;3.20;0.30;;;23.70;99.90;;;;;;5005368;28;20128;-65
2022/09/02 11:07:09;;;;;;;6.65;0.70;;;23.60;99.90;;;;;;5044441;28;20446;-65
2022/09/02 11:09:53;;;;;;;2.72;0.30;;;23.50;99.90;;;;;;5026629;28;20048;-65
2022/09/02 11:12:26;;;;;;;1.58;0.28;;;23.70;99.90;;;;;;5020067;28;20523;-65
2022/09/02 11:15:03;;;;;;;1.20;0.20;;;23.60;99.90;;;;;;5027719;28;20049;-65
2022/09/02 11:18:00;;;;;;;3.67;0.50;;;23.80;99.30;;;;;;5054771;28;20095;-65
2022/09/02 11:20:44;;;;;;;2.30;0.40;;;23.50;99.60;;;;;;5055282;28;20506;-65
2022/09/02 11:23:35;;;;;;;2.37;0.37;;;23.60;99.40;;;;;;5037337;28;20037;-65
2022/09/02 11:26:10;;;;;;;2.45;0.40;;;23.70;99.20;;;;;;5032931;28;20041;-65
2022/09/02 11:28:59;;;;;;;4.18;1.08;;;23.80;98.60;;;;;;5046669;28;20109;-66
2022/09/02 11:31:33;;;;;;;2.33;0.50;;;24.20;99.10;;;;;;5028553;28;20040;-65
2022/09/02 11:34:35;;;;;;;2.03;0.40;;;24.00;98.80;;;;;;5041247;28;20091;-65
2022/09/02 11:37:04;;;;;;;3.10;0.30;;;24.10;99.10;;;;;;5007922;28;20526;-66
2022/09/02 11:39:42;;;;;;;3.15;0.43;;;24.00;99.40;;;;;;5032343;28;20403;-66
2022/09/02 11:42:49;;;;;;;2.75;0.50;;;24.00;98.00;;;;;;5023049;28;20069;-65
2022/09/02 11:45:21;;;;;;;1.15;0.30;;;24.00;98.10;;;;;;5003263;28;20049;-65
2022/09/02 11:48:19;;;;;;;1.55;0.50;;;24.30;99.30;;;;;;5032080;28;20048;-66
2022/09/02 11:51:11;;;;;;;1.85;0.50;;;24.20;98.00;;;;;;5030162;28;20075;-66
2022/09/02 11:53:40;;;;;;;2.15;0.30;;;24.50;98.40;;;;;;5027027;28;20455;-66
2022/09/02 11:56:35;;;;;;;1.40;0.30;;;24.70;98.60;;;;;;5023338;28;20034;-66
2022/09/02 11:59:01;;;;;;;4.38;0.57;;;24.20;98.50;;;;;;5011205;28;20127;-65
2022/09/02 12:01:29;;;;;;;3.42;0.30;;;24.20;98.20;;;;;;5018940;28;20034;-65
2022/09/02 12:04:03;;;;;;;3.10;0.38;;;24.10;98.00;;;;;;5024170;28;20053;-65
2022/09/02 12:06:29;;;;;;;2.25;0.63;;;24.20;98.40;;;;;;5001854;28;20049;-65
2022/09/02 12:08:58;;;;;;;1.30;0.38;;;23.90;97.90;;;;;;5018224;28;20034;-67
2022/09/02 12:11:41;;;;;;;2.13;0.35;;;24.10;97.50;;;;;;5016901;28;20045;-67
2022/09/02 12:14:24;;;;;;;2.47;0.40;;;24.30;97.20;;;;;;4998030;28;20061;-65
2022/09/02 12:17:07;;;;;;;1.50;0.30;;;24.20;97.80;;;;;;5001057;28;20041;-65
2022/09/02 12:19:42;;;;;;;0.82;0.40;;;24.30;98.10;;;;;;5017941;28;20034;-65
2022/09/02 12:22:14;;;;;;;3.90;0.60;;;24.30;98.00;;;;;;5014232;28;20034;-65
2022/09/02 12:24:56;;;;;;;3.85;0.63;;;24.30;98.30;;;;;;4996398;28;20038;-65
2022/09/02 12:27:23;;;;;;;4.25;0.40;;;24.40;97.20;;;;;;5019567;28;20560;-66
2022/09/02 12:29:50;;;;;;;1.77;0.50;;;24.10;97.50;;;;;;4997961;28;20044;-65
2022/09/02 12:32:49;;;;;;;4.53;0.30;;;24.50;97.30;;;;;;5016350;28;20033;-65
2022/09/02 12:35:33;;;;;;;1.17;0.40;;;24.20;97.00;;;;;;4999625;28;20085;-65
2022/09/02 12:38:10;;;;;;;1.90;0.65;;;24.40;97.50;;;;;;4997550;28;20444;-65
2022/09/02 12:41:12;;;;;;;2.58;0.38;;;24.20;97.10;;;;;;4997719;28;20038;-65
2022/09/02 12:44:15;;;;;;;1.17;0.30;;;24.30;97.10;;;;;;5016014;28;20492;-65
2022/09/02 12:46:47;;;;;;;2.28;0.38;;;24.30;97.20;;;;;;4976423;28;20103;-65
2022/09/02 12:49:40;;;;;;;2.95;0.30;;;24.10;97.20;;;;;;5004356;28;20492;-65
2022/09/02 12:52:11;;;;;;;2.63;0.57;;;24.60;97.70;;;;;;5013058;28;20503;-65
2022/09/02 12:54:48;;;;;;;3.67;0.40;;;24.60;97.20;;;;;;4997883;28;20407;-65
2022/09/02 12:57:16;;;;;;;2.53;0.40;;;24.40;97.30;;;;;;4996423;28;20568;-65
2022/09/02 12:59:43;;;;;;;1.90;0.40;;;24.70;97.20;;;;;;5013261;28;20058;-65
2022/09/02 13:02:27;;;;;;;2.80;0.73;;;24.50;97.10;;;;;;5015650;28;20116;-65
2022/09/02 13:05:16;;;;;;;2.07;0.60;;;24.70;96.00;;;;;;4998621;28;20042;-65
2022/09/02 13:07:45;;;;;;;2.15;0.40;;;24.50;96.70;;;;;;5015133;28;20285;-66
2022/09/02 13:10:27;;;;;;;5.80;0.80;;;24.60;96.20;;;;;;5006106;28;20056;-65